Time;durP1;ratioP1;P1;durP2;ratioP2;P2;SDS_P1;SDS_P2;PMS_P1;PMS_P2;Temp;Humidity;BMP_temperature;BMP_pressure;BME280_temperature;BME280_humidity;BME280_pressure;Samples;Min_cycle;Max_cycle;Signal;HPM_P1;HPM_P2
2022/03/22 00:00:30;;;;;;;4.27;3.73;;;22.80;52.70;;;;;;4990450;28;20428;-89
2022/03/22 00:02:57;;;;;;;4.37;3.97;;;22.80;52.70;;;;;;4999252;28;20425;-89
2022/03/22 00:05:23;;;;;;;4.23;3.83;;;22.80;52.70;;;;;;4988779;28;20406;-89
2022/03/22 00:07:50;;;;;;;4.10;3.70;;;22.80;52.70;;;;;;4980035;28;20422;-89
2022/03/22 00:10:16;;;;;;;4.30;3.90;;;22.80;52.70;;;;;;4969938;29;20538;-90
2022/03/22 00:16:07;;;;;;;3.40;3.10;;;22.80;52.70;;;;;;4989088;28;20420;-89
2022/03/22 00:18:33;;;;;;;4.10;3.50;;;22.80;52.70;;;;;;4971484;28;20919;-90
2022/03/22 00:20:59;;;;;;;3.50;3.20;;;22.80;52.70;;;;;;4988906;28;20429;-89
2022/03/22 00:23:25;;;;;;;3.10;2.83;;;22.80;53.00;;;;;;4972713;28;20421;-88
2022/03/22 00:25:54;;;;;;;3.70;3.40;;;22.80;52.70;;;;;;4973003;28;20196;-89
2022/03/22 00:28:20;;;;;;;3.27;2.97;;;22.80;52.70;;;;;;4971732;28;20188;-89
2022/03/22 00:30:46;;;;;;;3.50;3.20;;;22.80;52.70;;;;;;4972536;28;20460;-89
2022/03/22 00:33:12;;;;;;;3.47;3.17;;;22.80;52.70;;;;;;4971739;28;20440;-89
2022/03/22 00:35:39;;;;;;;4.07;3.73;;;22.70;52.60;;;;;;4971477;28;20182;-88
2022/03/22 00:38:11;;;;;;;3.13;2.83;;;22.80;52.70;;;;;;4989102;28;20237;-89
2022/03/22 00:40:37;;;;;;;3.77;3.37;;;22.80;52.70;;;;;;4971293;28;20427;-89
2022/03/22 00:43:03;;;;;;;3.30;3.00;;;22.70;52.70;;;;;;4971799;28;20421;-89
2022/03/22 00:45:33;;;;;;;3.00;2.73;;;22.70;52.60;;;;;;4988212;28;20552;-89
2022/03/22 00:48:01;;;;;;;3.73;3.43;;;22.70;52.70;;;;;;4971481;28;20477;-89
2022/03/22 00:50:51;;;;;;;3.73;3.27;;;22.70;53.20;;;;;;4988217;28;20483;-89
2022/03/22 00:53:18;;;;;;;3.23;2.83;;;22.70;52.60;;;;;;4989056;28;20440;-89
2022/03/22 00:55:45;;;;;;;3.70;3.40;;;22.70;52.70;;;;;;4988198;28;20408;-89
2022/03/22 00:58:11;;;;;;;3.73;3.43;;;22.70;52.70;;;;;;4971126;28;20932;-89
2022/03/22 01:03:59;;;;;;;3.80;3.50;;;22.70;52.70;;;;;;4988719;28;20443;-89
2022/03/22 01:06:25;;;;;;;2.67;2.47;;;22.70;52.70;;;;;;4971596;28;20433;-89
2022/03/22 01:08:50;;;;;;;3.43;3.13;;;22.70;52.70;;;;;;4970740;28;20182;-89
2022/03/22 01:11:16;;;;;;;4.10;3.10;;;22.70;52.70;;;;;;4971241;28;20229;-88
2022/03/22 01:13:51;;;;;;;4.03;3.17;;;22.70;52.70;;;;;;4988146;28;20178;-88
2022/03/22 01:16:16;;;;;;;3.50;3.20;;;22.70;52.80;;;;;;4970981;28;20189;-88
2022/03/22 01:18:44;;;;;;;3.17;2.90;;;22.70;52.70;;;;;;4971192;28;20445;-88
2022/03/22 01:21:10;;;;;;;3.60;3.10;;;22.70;52.70;;;;;;4988620;28;20184;-88
2022/03/22 01:23:36;;;;;;;3.43;3.07;;;22.70;52.70;;;;;;4971341;28;20429;-88
2022/03/22 01:26:02;;;;;;;3.27;2.97;;;22.70;52.70;;;;;;4971122;28;20272;-88
2022/03/22 01:28:28;;;;;;;3.30;3.00;;;22.70;52.70;;;;;;4988528;28;20417;-88
2022/03/22 01:30:54;;;;;;;3.80;3.50;;;22.70;52.70;;;;;;4988047;28;20463;-88
2022/03/22 01:33:20;;;;;;;3.27;2.97;;;22.70;52.70;;;;;;4971667;28;20452;-88
2022/03/22 01:36:06;;;;;;;3.87;3.10;;;22.70;52.70;;;;;;4971410;28;20217;-90
2022/03/22 01:38:32;;;;;;;4.00;3.30;;;22.70;52.70;;;;;;4970926;28;20425;-89
2022/03/22 01:40:58;;;;;;;3.20;2.90;;;22.70;52.70;;;;;;4988946;28;20895;-89
2022/03/22 01:43:24;;;;;;;3.87;3.47;;;22.70;52.70;;;;;;4962555;28;20441;-89
2022/03/22 01:45:49;;;;;;;3.50;3.20;;;22.70;52.70;;;;;;4989078;28;20178;-89
2022/03/22 01:48:15;;;;;;;3.57;3.27;;;22.70;52.70;;;;;;4973222;28;20572;-90
2022/03/22 01:50:42;;;;;;;3.43;2.90;;;22.70;52.70;;;;;;4969217;29;20253;-87
2022/03/22 01:53:10;;;;;;;3.50;3.20;;;22.70;52.70;;;;;;4953052;29;20418;-88
2022/03/22 01:55:39;;;;;;;3.50;3.20;;;22.70;52.70;;;;;;4980418;28;20401;-88
2022/03/22 01:58:05;;;;;;;4.10;3.70;;;22.70;52.70;;;;;;4953298;29;20445;-88
2022/03/22 02:00:30;;;;;;;3.40;3.10;;;22.70;52.70;;;;;;4970513;28;20406;-88
2022/03/22 02:08:16;;;;;;;3.17;2.97;;;22.60;52.60;;;;;;4974928;29;20429;-88
2022/03/22 02:10:42;;;;;;;3.23;2.90;;;22.60;52.60;;;;;;4962579;28;20465;-88
2022/03/22 02:13:08;;;;;;;3.53;3.23;;;22.60;52.60;;;;;;4990957;28;20409;-89
2022/03/22 02:15:33;;;;;;;3.57;3.07;;;22.60;52.60;;;;;;4990648;28;20412;-88
2022/03/22 02:17:59;;;;;;;3.17;2.87;;;22.60;52.60;;;;;;4974604;28;20205;-88
2022/03/22 02:20:26;;;;;;;3.83;3.47;;;22.60;52.70;;;;;;4991612;28;20233;-88
2022/03/22 02:23:05;;;;;;;3.13;2.83;;;22.60;52.60;;;;;;4973842;28;20423;-88
2022/03/22 02:25:33;;;;;;;3.07;2.87;;;22.60;52.60;;;;;;4974161;28;20831;-88
2022/03/22 02:27:59;;;;;;;3.57;3.27;;;22.60;52.60;;;;;;4990368;28;20552;-87
2022/03/22 02:30:25;;;;;;;3.80;2.77;;;22.60;52.60;;;;;;4973187;28;20884;-88
2022/03/22 02:32:56;;;;;;;3.60;3.20;;;22.60;52.60;;;;;;4990167;28;20201;-88
2022/03/22 02:35:23;;;;;;;2.90;2.70;;;22.60;52.60;;;;;;4987998;28;20888;-90
2022/03/22 02:37:49;;;;;;;3.27;2.93;;;22.60;52.60;;;;;;4986792;28;20424;-89
2022/03/22 02:40:16;;;;;;;2.67;2.47;;;22.60;52.60;;;;;;4969760;28;20413;-89
2022/03/22 02:42:44;;;;;;;3.40;3.10;;;22.60;52.60;;;;;;4971776;28;20491;-89
2022/03/22 02:45:11;;;;;;;3.10;2.80;;;22.60;52.60;;;;;;4967363;28;20410;-89
2022/03/22 02:47:39;;;;;;;3.30;3.00;;;22.60;52.60;;;;;;4974205;28;21066;-89
2022/03/22 02:50:05;;;;;;;3.10;2.80;;;22.60;52.60;;;;;;4965466;28;20421;-89
2022/03/22 02:52:31;;;;;;;3.03;2.57;;;22.60;52.70;;;;;;4969563;28;20425;-89
2022/03/22 02:58:19;;;;;;;3.00;2.77;;;22.60;52.60;;;;;;4982265;28;20234;-89
2022/03/22 03:00:45;;;;;;;2.70;2.50;;;22.50;52.60;;;;;;4985874;28;20437;-89
2022/03/22 03:03:11;;;;;;;3.37;3.07;;;22.50;52.60;;;;;;4983505;28;20184;-89
2022/03/22 03:05:38;;;;;;;3.20;2.90;;;22.50;52.60;;;;;;4983773;28;20471;-89
2022/03/22 03:08:04;;;;;;;3.10;2.80;;;22.50;52.60;;;;;;4964819;28;20616;-88
2022/03/22 03:10:30;;;;;;;3.20;2.90;;;22.50;52.60;;;;;;4966131;28;20461;-89
2022/03/22 03:13:01;;;;;;;3.40;3.07;;;22.50;52.60;;;;;;4987219;28;20454;-89
2022/03/22 03:15:28;;;;;;;3.00;2.77;;;22.50;52.60;;;;;;4982527;28;20421;-89
2022/03/22 03:17:53;;;;;;;3.20;2.90;;;22.50;52.60;;;;;;4982954;28;20416;-89
2022/03/22 03:20:19;;;;;;;3.10;2.80;;;22.50;52.60;;;;;;4963963;28;20500;-89
2022/03/22 03:22:45;;;;;;;2.93;2.70;;;22.50;52.50;;;;;;4971775;28;20178;-89
2022/03/22 03:25:11;;;;;;;3.20;2.90;;;22.50;52.50;;;;;;4963061;28;20189;-89
2022/03/22 03:27:37;;;;;;;2.47;2.27;;;22.50;52.50;;;;;;4966678;28;20174;-88
2022/03/22 03:30:07;;;;;;;2.90;2.70;;;22.50;52.50;;;;;;4969157;28;20177;-89
2022/03/22 03:32:34;;;;;;;3.53;3.23;;;22.50;52.60;;;;;;4985490;28;20447;-89
2022/03/22 03:35:00;;;;;;;3.10;2.70;;;22.50;52.60;;;;;;4965115;28;20425;-88
2022/03/22 03:43:32;;;;;;;3.03;2.73;;;22.50;52.60;;;;;;4982146;28;20428;-89
2022/03/22 03:48:43;;;;;;;3.87;3.27;;;22.50;52.60;;;;;;4982553;28;20219;-88
2022/03/22 03:51:08;;;;;;;3.03;2.73;;;22.50;52.60;;;;;;4964827;28;21007;-88
2022/03/22 03:54:26;;;;;;;3.10;2.77;;;22.50;52.60;;;;;;4985195;28;20547;-89
2022/03/22 03:56:53;;;;;;;3.47;2.97;;;22.50;52.60;;;;;;4980563;28;20166;-88
2022/03/22 03:59:21;;;;;;;3.30;3.00;;;22.40;52.60;;;;;;4975815;28;20437;-89
2022/03/22 04:01:47;;;;;;;3.20;2.90;;;22.50;52.70;;;;;;4983591;28;20495;-89
2022/03/22 04:04:13;;;;;;;2.70;2.50;;;22.50;52.70;;;;;;4962680;29;20418;-88
2022/03/22 04:07:08;;;;;;;3.33;3.00;;;22.50;52.70;;;;;;4964767;28;20425;-89
2022/03/22 04:09:35;;;;;;;2.30;2.10;;;22.50;52.70;;;;;;4961755;28;20232;-89
2022/03/22 04:12:02;;;;;;;3.00;2.70;;;22.50;52.70;;;;;;4981750;28;20484;-88
2022/03/22 04:14:28;;;;;;;3.13;2.77;;;22.40;52.60;;;;;;4975113;28;20470;-89
2022/03/22 04:16:57;;;;;;;2.97;2.70;;;22.50;52.70;;;;;;4982120;28;20442;-89
2022/03/22 04:19:24;;;;;;;3.03;2.77;;;22.40;52.60;;;;;;4974971;28;20438;-89
2022/03/22 04:21:50;;;;;;;2.50;2.30;;;22.40;52.50;;;;;;4960506;28;20940;-88
2022/03/22 04:24:16;;;;;;;3.10;2.80;;;22.40;52.60;;;;;;4986861;28;20418;-88
2022/03/22 04:26:43;;;;;;;2.63;2.43;;;22.50;52.60;;;;;;4964338;28;20421;-89
2022/03/22 04:34:42;;;;;;;2.93;2.63;;;22.40;52.50;;;;;;4977087;28;20461;-87
2022/03/22 04:37:14;;;;;;;3.27;2.97;;;22.40;52.50;;;;;;4982947;28;20432;-88
2022/03/22 04:39:44;;;;;;;3.30;2.40;;;22.40;52.50;;;;;;4984678;28;20428;-88
2022/03/22 04:42:10;;;;;;;2.90;2.70;;;22.40;52.50;;;;;;4958640;28;20406;-88
2022/03/22 04:44:37;;;;;;;3.33;3.07;;;22.40;52.50;;;;;;4959385;28;20418;-88
2022/03/22 04:47:03;;;;;;;3.43;3.13;;;22.40;52.60;;;;;;4958114;28;20452;-87
2022/03/22 04:49:29;;;;;;;2.77;2.57;;;22.40;52.50;;;;;;4976744;28;20430;-87
2022/03/22 04:57:37;;;;;;;4.13;3.03;;;22.40;52.60;;;;;;4973459;28;20409;-89
2022/03/22 05:00:05;;;;;;;3.40;3.10;;;22.40;52.60;;;;;;4976370;28;20425;-89
2022/03/22 05:02:31;;;;;;;3.10;2.80;;;22.40;52.60;;;;;;4955820;28;20441;-88
2022/03/22 05:04:57;;;;;;;3.27;2.97;;;22.40;52.60;;;;;;4974219;28;20413;-88
2022/03/22 05:07:41;;;;;;;2.97;2.73;;;22.40;52.60;;;;;;4966264;28;20178;-88
2022/03/22 05:10:08;;;;;;;2.90;2.63;;;22.40;52.60;;;;;;4977991;28;20162;-88
2022/03/22 05:12:37;;;;;;;3.17;2.90;;;22.30;52.50;;;;;;4955722;28;20442;-88
2022/03/22 05:15:03;;;;;;;2.63;2.43;;;22.40;52.60;;;;;;4977982;28;20436;-88
2022/03/22 05:17:29;;;;;;;4.00;2.63;;;22.30;52.50;;;;;;4971986;28;20402;-89
2022/03/22 05:19:55;;;;;;;3.30;3.00;;;22.30;52.50;;;;;;4957618;28;20433;-88
2022/03/22 05:22:20;;;;;;;4.70;4.30;;;22.30;52.60;;;;;;4972314;28;20209;-89
2022/03/22 05:24:46;;;;;;;4.57;4.17;;;22.30;52.40;;;;;;4973850;28;20178;-90
2022/03/22 05:27:15;;;;;;;3.83;3.53;;;22.30;52.30;;;;;;4972212;28;20205;-88
2022/03/22 05:29:42;;;;;;;3.87;3.57;;;22.30;52.30;;;;;;4957118;28;20806;-89
2022/03/22 05:32:08;;;;;;;4.03;3.00;;;22.30;52.40;;;;;;4955433;28;20457;-88
2022/03/22 05:34:37;;;;;;;3.03;2.70;;;22.30;52.40;;;;;;4955793;28;20419;-90
2022/03/22 05:37:03;;;;;;;3.53;3.23;;;22.30;52.40;;;;;;4982354;28;20419;-86
2022/03/22 05:39:30;;;;;;;3.77;3.10;;;22.30;52.50;;;;;;4959154;28;20453;-89
2022/03/22 05:41:56;;;;;;;3.13;2.87;;;22.30;52.50;;;;;;4978302;28;20182;-89
2022/03/22 05:47:45;;;;;;;4.37;3.20;;;22.30;52.60;;;;;;4977717;28;20484;-88
2022/03/22 05:50:11;;;;;;;3.10;2.80;;;22.20;52.50;;;;;;4973226;28;20422;-89
2022/03/22 05:52:42;;;;;;;4.00;3.33;;;22.20;52.50;;;;;;4976209;28;20503;-89
2022/03/22 05:55:08;;;;;;;3.33;3.03;;;22.20;52.50;;;;;;4978255;28;20412;-89
2022/03/22 05:57:34;;;;;;;3.70;3.30;;;22.20;52.50;;;;;;4979025;28;20434;-89
2022/03/22 06:00:07;;;;;;;4.57;3.70;;;22.30;52.60;;;;;;4972946;29;20417;-89
2022/03/22 06:02:37;;;;;;;3.40;3.10;;;22.30;52.60;;;;;;4955869;29;20643;-89
2022/03/22 06:05:05;;;;;;;3.93;3.23;;;22.30;52.60;;;;;;4971716;29;20433;-89
2022/03/22 06:07:31;;;;;;;3.33;3.03;;;22.30;53.10;;;;;;4954931;29;20932;-89
2022/03/22 06:09:57;;;;;;;3.23;2.93;;;22.30;52.50;;;;;;4972217;29;20406;-88
2022/03/22 06:12:23;;;;;;;4.47;3.47;;;22.30;52.50;;;;;;4973577;29;20488;-87
2022/03/22 06:15:14;;;;;;;3.20;3.00;;;22.30;52.50;;;;;;4972863;28;20178;-88
2022/03/22 06:17:34;;;;;;;2.90;2.57;;;22.30;52.50;;;;;;4981632;28;20181;-88
2022/03/22 06:20:01;;;;;;;3.43;3.13;;;22.30;52.50;;;;;;4991984;28;20461;-89
2022/03/22 06:22:27;;;;;;;3.83;3.50;;;22.30;52.50;;;;;;4991793;28;20170;-88
2022/03/22 06:24:53;;;;;;;4.40;3.80;;;22.30;52.50;;;;;;4977294;28;20421;-87
2022/03/22 06:27:21;;;;;;;3.87;3.33;;;22.30;52.50;;;;;;4972850;28;20179;-89
2022/03/22 06:29:56;;;;;;;4.20;3.80;;;22.30;52.50;;;;;;4971862;29;20189;-89
2022/03/22 06:32:22;;;;;;;3.73;3.33;;;22.30;52.50;;;;;;4985087;28;21384;-89
2022/03/22 06:38:11;;;;;;;3.00;2.70;;;22.30;52.50;;;;;;4989031;28;20907;-89
2022/03/22 06:40:40;;;;;;;6.37;3.17;;;22.30;52.50;;;;;;4974183;28;20428;-89
2022/03/22 06:43:10;;;;;;;3.93;3.53;;;22.30;52.50;;;;;;4987779;28;20447;-89
2022/03/22 06:45:37;;;;;;;6.60;3.40;;;22.30;52.50;;;;;;4991070;28;20411;-88
2022/03/22 06:48:04;;;;;;;3.17;2.50;;;22.30;52.50;;;;;;4972169;28;20915;-87
2022/03/22 06:50:31;;;;;;;3.43;3.10;;;22.30;52.50;;;;;;4988841;28;20459;-88
2022/03/22 06:52:58;;;;;;;3.67;2.90;;;22.30;52.40;;;;;;4973083;28;20425;-88
2022/03/22 06:55:24;;;;;;;4.40;3.40;;;22.40;52.50;;;;;;4971252;28;20524;-87
2022/03/22 06:57:52;;;;;;;3.80;3.47;;;22.30;52.50;;;;;;4988230;28;20421;-88
2022/03/22 07:00:20;;;;;;;3.87;3.47;;;22.40;52.50;;;;;;4989999;28;20417;-87
2022/03/22 07:02:49;;;;;;;4.07;3.67;;;22.40;52.50;;;;;;4973234;28;20420;-87
2022/03/22 07:05:16;;;;;;;3.43;3.13;;;22.40;52.50;;;;;;4970797;28;20460;-87
2022/03/22 07:07:42;;;;;;;3.67;3.37;;;22.40;53.10;;;;;;4988507;28;20405;-87
2022/03/22 07:10:17;;;;;;;3.20;2.90;;;22.40;52.50;;;;;;4969755;28;20399;-87
2022/03/22 07:12:59;;;;;;;3.33;3.03;;;22.40;52.50;;;;;;4989508;28;20412;-87
2022/03/22 07:15:38;;;;;;;4.50;3.60;;;22.40;52.50;;;;;;4970258;28;20433;-88
2022/03/22 07:18:06;;;;;;;3.33;2.93;;;22.40;52.50;;;;;;4987244;28;20488;-87
2022/03/22 07:20:33;;;;;;;3.30;3.00;;;22.40;52.50;;;;;;4966875;28;20496;-87
2022/03/22 07:23:01;;;;;;;3.50;3.20;;;22.40;52.50;;;;;;4986814;28;20437;-87
2022/03/22 07:25:29;;;;;;;4.30;3.33;;;22.40;52.60;;;;;;4987890;28;20519;-87
2022/03/22 07:27:55;;;;;;;3.53;2.83;;;22.40;52.50;;;;;;4973126;28;20655;-86
2022/03/22 07:30:21;;;;;;;3.67;3.20;;;22.40;52.50;;;;;;4955490;28;20421;-86
2022/03/22 07:32:47;;;;;;;4.30;3.57;;;22.40;52.50;;;;;;4971810;28;20178;-86
2022/03/22 07:35:17;;;;;;;3.73;3.43;;;22.40;52.50;;;;;;4969801;28;20429;-87
2022/03/22 07:38:04;;;;;;;4.30;3.30;;;22.40;52.50;;;;;;4986544;28;20166;-87
2022/03/22 07:40:30;;;;;;;3.37;3.07;;;22.40;52.50;;;;;;4987436;28;20961;-88
2022/03/22 07:46:15;;;;;;;4.47;3.27;;;22.50;52.60;;;;;;4988854;28;20190;-88
2022/03/22 07:48:44;;;;;;;3.80;3.20;;;22.40;52.60;;;;;;4970867;28;20448;-88
2022/03/22 07:53:54;;;;;;;3.33;3.03;;;22.40;52.60;;;;;;4983481;28;20278;-89
2022/03/22 07:56:20;;;;;;;3.80;3.33;;;22.40;52.50;;;;;;4988721;28;20532;-88
2022/03/22 07:58:45;;;;;;;4.20;3.60;;;22.40;52.50;;;;;;4993320;28;20198;-87
2022/03/22 08:01:11;;;;;;;3.23;2.93;;;22.50;52.60;;;;;;4986239;28;20266;-88
2022/03/22 08:03:37;;;;;;;3.40;3.10;;;22.50;52.60;;;;;;4971308;28;20570;-88
2022/03/22 08:06:07;;;;;;;3.20;2.90;;;22.50;52.60;;;;;;4984277;28;20200;-88
2022/03/22 08:08:33;;;;;;;3.43;3.00;;;22.50;52.60;;;;;;4970400;28;20706;-88
2022/03/22 08:11:01;;;;;;;5.53;3.63;;;22.50;52.60;;;;;;4967750;28;20457;-88
2022/03/22 08:13:26;;;;;;;4.40;3.27;;;22.50;52.60;;;;;;4965268;28;20492;-89
2022/03/22 08:16:02;;;;;;;5.93;3.20;;;22.50;52.60;;;;;;4973255;28;20436;-89
2022/03/22 08:18:27;;;;;;;3.67;3.33;;;22.50;52.60;;;;;;4969961;28;20173;-89
2022/03/22 08:24:15;;;;;;;3.47;3.17;;;22.50;52.60;;;;;;4985654;28;20551;-89
2022/03/22 08:26:41;;;;;;;3.40;3.10;;;22.50;52.60;;;;;;4967839;28;20433;-88
2022/03/22 08:29:07;;;;;;;3.47;3.17;;;22.50;52.70;;;;;;4985104;28;20488;-88
2022/03/22 08:31:33;;;;;;;3.60;2.93;;;22.50;52.70;;;;;;4968854;28;20225;-88
2022/03/22 08:33:58;;;;;;;3.67;3.23;;;22.50;52.60;;;;;;4985995;28;20237;-88
2022/03/22 08:36:24;;;;;;;3.53;2.83;;;22.50;52.70;;;;;;4984523;28;20174;-89
2022/03/22 08:38:52;;;;;;;3.93;3.60;;;22.50;52.60;;;;;;4984391;28;20170;-89
2022/03/22 08:41:17;;;;;;;3.00;2.70;;;22.50;52.60;;;;;;4985358;28;20170;-88
2022/03/22 08:43:43;;;;;;;3.27;2.93;;;22.50;52.60;;;;;;4969706;28;20497;-89
2022/03/22 08:46:09;;;;;;;4.50;2.87;;;22.50;52.60;;;;;;4980992;28;20418;-88
2022/03/22 08:48:37;;;;;;;3.30;3.00;;;22.50;52.60;;;;;;4971711;28;20181;-88
2022/03/22 08:51:09;;;;;;;3.70;3.40;;;22.50;52.60;;;;;;4969756;28;20201;-88
2022/03/22 08:53:35;;;;;;;2.90;2.70;;;22.50;52.60;;;;;;4982292;28;20413;-89
2022/03/22 08:56:03;;;;;;;3.17;2.87;;;22.60;52.70;;;;;;4980674;28;20421;-89
2022/03/22 08:58:30;;;;;;;3.40;3.10;;;22.60;52.70;;;;;;4964120;28;20441;-89
2022/03/22 09:00:56;;;;;;;3.47;3.17;;;22.60;52.70;;;;;;4950822;28;20441;-88
2022/03/22 09:03:22;;;;;;;3.50;3.20;;;22.50;52.60;;;;;;4980662;28;20919;-88
2022/03/22 09:08:34;;;;;;;3.20;2.90;;;22.60;52.70;;;;;;4981671;28;20403;-87
2022/03/22 09:11:00;;;;;;;3.40;3.10;;;22.50;52.60;;;;;;4980614;28;20530;-87
2022/03/22 09:13:28;;;;;;;3.10;2.80;;;22.50;52.60;;;;;;4980884;28;20429;-88
2022/03/22 09:15:55;;;;;;;3.83;3.40;;;22.60;52.70;;;;;;4981923;28;20495;-87
2022/03/22 09:18:23;;;;;;;3.40;3.10;;;22.60;52.70;;;;;;4968872;28;20461;-88
2022/03/22 09:20:49;;;;;;;3.40;3.10;;;22.60;52.70;;;;;;4982755;28;20444;-87
2022/03/22 09:23:15;;;;;;;3.03;2.73;;;22.60;52.70;;;;;;4962365;29;20426;-87
2022/03/22 09:25:43;;;;;;;2.50;2.30;;;22.60;52.70;;;;;;4980928;28;20433;-87
2022/03/22 09:28:10;;;;;;;3.80;2.93;;;22.60;52.70;;;;;;4971469;28;20545;-87
2022/03/22 09:30:38;;;;;;;3.60;2.80;;;22.60;52.70;;;;;;4959533;28;20454;-88
2022/03/22 09:33:05;;;;;;;2.60;2.40;;;22.60;52.70;;;;;;4987148;28;20421;-87
2022/03/22 09:35:32;;;;;;;3.60;2.83;;;22.60;52.70;;;;;;4972320;28;20442;-88
2022/03/22 09:37:59;;;;;;;3.43;2.80;;;22.60;52.70;;;;;;4974256;28;20421;-87
2022/03/22 09:40:27;;;;;;;3.20;2.90;;;22.60;52.70;;;;;;4956185;29;20271;-88
2022/03/22 09:42:54;;;;;;;3.57;3.20;;;22.60;52.70;;;;;;4975375;28;20507;-87
2022/03/22 09:45:31;;;;;;;3.00;2.60;;;22.60;52.70;;;;;;4972412;28;20429;-87
2022/03/22 09:47:59;;;;;;;3.30;2.73;;;22.60;52.70;;;;;;4980376;28;20419;-87
2022/03/22 09:51:44;;;;;;;3.10;2.80;;;22.60;52.70;;;;;;4974863;28;20418;-88
2022/03/22 09:53:37;;;;;;;2.77;2.57;;;22.60;52.70;;;;;;4981332;28;20502;-88
2022/03/22 09:56:03;;;;;;;3.10;2.80;;;22.60;52.80;;;;;;4976971;28;20421;-87
2022/03/22 09:58:29;;;;;;;2.90;2.70;;;22.50;52.70;;;;;;4958984;28;20438;-87
2022/03/22 10:00:55;;;;;;;3.90;2.90;;;22.50;52.80;;;;;;4959253;28;20432;-87
2022/03/22 10:03:21;;;;;;;3.10;2.80;;;22.50;53.30;;;;;;4957443;29;20206;-88
2022/03/22 10:06:01;;;;;;;2.73;2.53;;;22.50;52.70;;;;;;4976856;28;20409;-87
2022/03/22 10:08:29;;;;;;;2.63;2.33;;;22.50;52.70;;;;;;4975335;28;20422;-87
2022/03/22 10:10:58;;;;;;;2.73;2.37;;;22.50;52.70;;;;;;4961527;28;20465;-87
2022/03/22 10:13:25;;;;;;;2.97;2.40;;;22.50;52.70;;;;;;4956577;28;20778;-87
2022/03/22 10:15:50;;;;;;;2.60;2.40;;;22.50;52.70;;;;;;4959634;28;20440;-87
2022/03/22 10:18:24;;;;;;;2.77;2.37;;;22.50;52.70;;;;;;4957279;29;20410;-87
2022/03/22 10:21:01;;;;;;;2.50;2.30;;;22.50;52.70;;;;;;4958956;28;20177;-87
2022/03/22 10:23:28;;;;;;;2.80;2.50;;;22.50;52.70;;;;;;4960469;28;20430;-87
2022/03/22 10:26:09;;;;;;;2.80;2.60;;;22.50;52.70;;;;;;4979675;28;20427;-86
2022/03/22 10:28:37;;;;;;;2.90;2.40;;;22.50;52.80;;;;;;4971915;28;20436;-89
2022/03/22 10:31:03;;;;;;;2.60;2.37;;;22.50;52.80;;;;;;4960811;28;20460;-89
2022/03/22 10:36:51;;;;;;;2.70;2.40;;;22.50;52.80;;;;;;4977726;28;20460;-88
2022/03/22 10:39:17;;;;;;;2.80;2.60;;;22.50;52.80;;;;;;4959760;29;20418;-88
2022/03/22 10:41:45;;;;;;;3.00;2.70;;;22.50;52.80;;;;;;4978521;28;20181;-88
2022/03/22 10:44:14;;;;;;;2.80;2.53;;;22.50;52.80;;;;;;4960033;29;20185;-89
2022/03/22 10:46:44;;;;;;;2.67;2.47;;;22.50;52.80;;;;;;4961233;28;20442;-88
2022/03/22 10:49:16;;;;;;;2.90;2.43;;;22.50;52.80;;;;;;4977021;28;20465;-88
2022/03/22 10:51:47;;;;;;;3.47;2.67;;;22.50;52.80;;;;;;4977944;28;20453;-88
2022/03/22 10:54:17;;;;;;;2.80;2.37;;;22.50;52.80;;;;;;4959583;29;20425;-88
2022/03/22 10:56:54;;;;;;;2.93;2.60;;;22.50;52.80;;;;;;4978618;28;20410;-88
2022/03/22 10:59:24;;;;;;;3.00;2.77;;;22.50;52.80;;;;;;4976472;28;20928;-88
2022/03/22 11:01:52;;;;;;;2.63;2.43;;;22.50;52.80;;;;;;4962044;28;20425;-88
2022/03/22 11:04:22;;;;;;;2.70;2.50;;;22.50;52.80;;;;;;4958957;29;20822;-88
2022/03/22 11:06:48;;;;;;;2.77;2.57;;;22.50;52.80;;;;;;4978353;28;20417;-88
2022/03/22 11:09:20;;;;;;;4.20;2.17;;;22.50;52.80;;;;;;4976030;28;20418;-88
2022/03/22 11:11:46;;;;;;;2.53;2.30;;;22.60;52.80;;;;;;4961284;28;20484;-88
2022/03/22 11:14:15;;;;;;;3.43;2.60;;;22.60;52.80;;;;;;4958475;29;20434;-88
2022/03/22 11:16:42;;;;;;;2.90;2.70;;;22.50;52.80;;;;;;4977552;28;20410;-88
2022/03/22 11:19:10;;;;;;;3.30;3.00;;;22.50;52.80;;;;;;4976321;28;20406;-88
2022/03/22 11:21:37;;;;;;;2.80;2.50;;;22.50;52.80;;;;;;4976764;28;20414;-87
2022/03/22 11:24:09;;;;;;;3.17;2.87;;;22.50;52.80;;;;;;4959613;28;20515;-88
2022/03/22 11:26:46;;;;;;;2.80;2.60;;;22.50;52.80;;;;;;4959226;28;20437;-89
2022/03/22 11:29:29;;;;;;;2.87;2.50;;;22.50;52.80;;;;;;4958050;29;20775;-88
2022/03/22 11:34:43;;;;;;;2.77;2.43;;;22.50;52.80;;;;;;4977138;28;20433;-87
2022/03/22 11:37:27;;;;;;;3.20;2.90;;;22.50;52.90;;;;;;4958577;28;20421;-88
2022/03/22 11:42:37;;;;;;;2.67;2.47;;;22.50;52.90;;;;;;4977132;28;20943;-88
2022/03/22 11:45:08;;;;;;;2.50;2.30;;;22.50;52.90;;;;;;4982626;28;20433;-88
2022/03/22 11:47:40;;;;;;;2.47;2.27;;;22.50;52.90;;;;;;4961452;28;20190;-88
2022/03/22 11:50:13;;;;;;;2.23;2.03;;;22.50;52.90;;;;;;4976831;28;20504;-88
2022/03/22 11:52:41;;;;;;;3.40;2.73;;;22.50;52.90;;;;;;4959721;28;20425;-89
2022/03/22 11:55:18;;;;;;;3.20;2.73;;;22.50;52.90;;;;;;4980750;28;20501;-88
2022/03/22 11:58:04;;;;;;;2.60;2.40;;;22.50;52.90;;;;;;4965090;28;20424;-88
2022/03/22 12:01:03;;;;;;;3.20;2.53;;;22.50;52.90;;;;;;4970744;29;20442;-88
2022/03/22 12:03:33;;;;;;;2.80;2.30;;;22.50;52.90;;;;;;4938979;29;20418;-87
2022/03/22 12:06:12;;;;;;;3.13;2.60;;;22.50;53.00;;;;;;4953674;29;20485;-88
2022/03/22 12:08:38;;;;;;;3.00;2.70;;;22.50;53.00;;;;;;4953185;29;20417;-88
2022/03/22 12:11:05;;;;;;;2.67;2.47;;;22.50;53.00;;;;;;4953000;29;20477;-89
2022/03/22 12:13:30;;;;;;;3.00;2.70;;;22.50;53.00;;;;;;4970457;29;20174;-88
2022/03/22 12:15:58;;;;;;;2.87;2.57;;;22.50;53.00;;;;;;4953527;29;20569;-88
2022/03/22 12:18:31;;;;;;;3.10;2.50;;;22.50;53.00;;;;;;4969225;28;20178;-88
2022/03/22 12:20:58;;;;;;;2.70;2.50;;;22.50;53.00;;;;;;4970648;29;20405;-90
2022/03/22 12:23:25;;;;;;;2.90;2.60;;;22.50;53.00;;;;;;4965426;28;20487;-90
2022/03/22 12:25:54;;;;;;;3.30;3.00;;;22.50;53.00;;;;;;4974463;28;20437;-89
2022/03/22 12:28:20;;;;;;;3.03;2.20;;;22.50;53.10;;;;;;4990231;28;20409;-90
2022/03/22 12:30:47;;;;;;;3.03;2.70;;;22.50;53.10;;;;;;4974330;28;20523;-89
2022/03/22 12:33:21;;;;;;;4.10;3.10;;;22.50;53.00;;;;;;4972947;28;20421;-90
2022/03/22 12:35:50;;;;;;;3.00;2.70;;;22.50;53.00;;;;;;4941816;29;20441;-90
2022/03/22 12:38:17;;;;;;;3.03;2.60;;;22.50;53.00;;;;;;4971161;29;20445;-90
2022/03/22 12:40:50;;;;;;;4.30;3.17;;;22.50;53.00;;;;;;4953476;29;20425;-90
2022/03/22 12:43:19;;;;;;;3.30;3.00;;;22.50;53.10;;;;;;4952800;29;20422;-90
2022/03/22 12:45:49;;;;;;;3.37;3.07;;;22.50;53.10;;;;;;4953507;29;20440;-90
2022/03/22 12:48:18;;;;;;;3.40;2.80;;;22.50;53.10;;;;;;4970605;29;20452;-90
2022/03/22 12:50:44;;;;;;;3.13;2.83;;;22.50;53.10;;;;;;4983900;28;20457;-90
2022/03/22 12:53:12;;;;;;;2.67;2.47;;;22.50;53.10;;;;;;4973126;28;20409;-90
2022/03/22 12:55:41;;;;;;;2.73;2.47;;;22.50;53.20;;;;;;4990763;28;20177;-90
2022/03/22 12:58:07;;;;;;;2.73;2.27;;;22.50;53.20;;;;;;4974009;28;20452;-90
2022/03/22 13:00:38;;;;;;;2.80;2.53;;;22.50;53.10;;;;;;4970846;28;20434;-89
2022/03/22 13:03:16;;;;;;;3.10;2.80;;;22.50;53.20;;;;;;4986685;28;20163;-89
2022/03/22 13:05:52;;;;;;;2.53;2.27;;;22.50;53.20;;;;;;4970787;29;20429;-89
2022/03/22 13:08:23;;;;;;;2.57;2.20;;;22.50;53.20;;;;;;4972173;29;20448;-89
2022/03/22 13:17:01;;;;;;;2.73;2.50;;;22.50;53.20;;;;;;4983854;28;20404;-89
2022/03/22 13:23:04;;;;;;;2.33;2.13;;;22.50;53.30;;;;;;4990002;28;20169;-90
2022/03/22 13:25:44;;;;;;;2.70;2.50;;;22.50;53.30;;;;;;4973643;28;20484;-90
2022/03/22 13:28:17;;;;;;;2.60;2.40;;;22.50;53.30;;;;;;4972720;28;20445;-88
2022/03/22 13:30:49;;;;;;;3.00;2.47;;;22.50;53.40;;;;;;4987459;28;20491;-89
2022/03/22 13:33:28;;;;;;;2.60;2.40;;;22.50;53.30;;;;;;4987926;28;20412;-89
2022/03/22 13:36:00;;;;;;;3.00;2.80;;;22.50;53.30;;;;;;4988009;28;20401;-89
2022/03/22 13:38:28;;;;;;;3.50;3.00;;;22.50;53.30;;;;;;4971065;28;21026;-89
2022/03/22 13:41:03;;;;;;;3.37;2.50;;;22.50;53.30;;;;;;4970859;28;20485;-89
2022/03/22 13:43:30;;;;;;;2.90;2.40;;;22.50;53.30;;;;;;4988387;28;20397;-89
2022/03/22 13:46:00;;;;;;;2.53;2.33;;;22.50;53.30;;;;;;4970485;28;20487;-88
2022/03/22 13:48:26;;;;;;;4.37;2.63;;;22.50;53.30;;;;;;4988934;28;20775;-89
2022/03/22 13:51:05;;;;;;;3.33;3.03;;;22.50;53.30;;;;;;4989410;28;20461;-88
2022/03/22 13:53:34;;;;;;;2.57;2.37;;;22.50;53.30;;;;;;4971610;28;20448;-89
2022/03/22 13:56:00;;;;;;;2.73;2.53;;;22.50;53.30;;;;;;4954911;28;20422;-88
2022/03/22 14:01:48;;;;;;;3.20;2.77;;;22.50;53.20;;;;;;4976265;29;20193;-87
2022/03/22 14:07:36;;;;;;;3.17;2.87;;;22.50;53.20;;;;;;4972667;28;20452;-89
2022/03/22 14:10:03;;;;;;;2.60;2.40;;;22.50;53.20;;;;;;4971390;29;20418;-89
2022/03/22 14:12:28;;;;;;;2.67;2.47;;;22.50;53.20;;;;;;4972612;29;20465;-89
2022/03/22 14:14:54;;;;;;;2.40;2.20;;;22.60;53.30;;;;;;4957550;28;20476;-89